createdAt,value
2022-11-05T00:02:23.541Z,14.20
2022-11-05T00:05:08.857Z,13.15
2022-11-05T00:08:00.115Z,14.13
2022-11-05T00:10:29.659Z,14.40
2022-11-05T00:13:17.128Z,11.82
2022-11-05T00:16:02.376Z,13.77
2022-11-05T00:18:29.506Z,14.02
2022-11-05T00:20:56.579Z,14.02
2022-11-05T00:23:53.500Z,11.60
2022-11-05T00:26:23.043Z,17.15
2022-11-05T00:28:50.091Z,14.93
2022-11-05T00:31:16.772Z,19.77
2022-11-05T00:33:43.636Z,13.68
2022-11-05T00:36:11.902Z,14.32
2022-11-05T00:38:38.727Z,13.30
2022-11-05T00:41:05.638Z,13.23
2022-11-05T00:43:50.706Z,11.57
2022-11-05T00:46:17.468Z,19.15
2022-11-05T00:49:02.652Z,16.45
2022-11-05T00:51:29.354Z,11.40
2022-11-05T00:53:56.085Z,14.43
2022-11-05T00:56:22.870Z,11.00
2022-11-05T00:58:49.542Z,16.45
2022-11-05T01:01:16.448Z,16.00
2022-11-05T01:03:48.838Z,14.40
2022-11-05T01:06:18.221Z,15.57
2022-11-05T01:08:45.926Z,15.32
2022-11-05T01:11:34.508Z,15.82
2022-11-05T01:14:06.313Z,10.98
2022-11-05T01:16:33.191Z,12.82
2022-11-05T01:19:01.653Z,18.67
2022-11-05T01:21:28.559Z,13.23
2022-11-05T01:23:55.239Z,15.50
2022-11-05T01:26:24.851Z,15.02
2022-11-05T01:29:04.945Z,17.40
2022-11-05T01:31:31.579Z,18.52
2022-11-05T01:34:00.882Z,15.25
2022-11-05T01:36:37.292Z,18.63
2022-11-05T01:39:04.090Z,14.65
2022-11-05T01:41:30.789Z,18.55
2022-11-05T01:44:13.950Z,19.45
2022-11-05T01:46:44.970Z,20.80
2022-11-05T01:49:17.490Z,17.25
2022-11-05T01:51:46.170Z,17.67
2022-11-05T01:54:21.206Z,20.08
2022-11-05T01:56:52.653Z,16.48
2022-11-05T01:59:25.828Z,25.37
2022-11-05T02:01:54.883Z,19.90
2022-11-05T02:04:31.449Z,20.73
2022-11-05T02:06:59.471Z,22.73
2022-11-05T02:09:33.536Z,18.90
2022-11-05T02:12:00.531Z,17.92
2022-11-05T02:14:27.674Z,16.52
2022-11-05T02:17:01.276Z,28.50
2022-11-05T02:19:45.418Z,19.58
2022-11-05T02:22:27.081Z,24.38
2022-11-05T02:25:01.166Z,19.42
2022-11-05T02:27:42.795Z,17.25
2022-11-05T02:30:29.071Z,19.33
2022-11-05T02:33:10.322Z,23.92
2022-11-05T02:36:00.674Z,21.17
2022-11-05T02:38:56.733Z,18.70
2022-11-05T02:41:49.251Z,19.95
2022-11-05T02:44:15.867Z,18.02
2022-11-05T02:46:57.990Z,26.75
2022-11-05T02:49:36.368Z,22.35
2022-11-05T02:52:25.323Z,25.02
2022-11-05T02:55:04.041Z,20.65
2022-11-05T02:57:37.032Z,25.05
2022-11-05T03:00:08.411Z,18.77
2022-11-05T03:02:35.442Z,20.47
2022-11-05T03:05:03.207Z,23.20
2022-11-05T03:07:44.178Z,21.80
2022-11-05T03:10:46.177Z,29.85
2022-11-05T03:13:23.494Z,25.57
2022-11-05T03:16:11.717Z,20.45
2022-11-05T03:18:57.127Z,17.55
2022-11-05T03:21:48.442Z,15.65
2022-11-05T03:24:26.786Z,19.45
2022-11-05T03:27:13.715Z,19.10
2022-11-05T03:29:49.994Z,22.13
2022-11-05T03:32:20.712Z,18.25
2022-11-05T03:34:52.550Z,25.67
2022-11-05T03:37:22.558Z,18.05
2022-11-05T03:39:52.795Z,20.58
2022-11-05T03:42:23.885Z,25.88
2022-11-05T03:44:55.159Z,20.95
2022-11-05T03:47:27.892Z,24.75
2022-11-05T03:50:29.040Z,19.65
2022-11-05T03:53:03.233Z,18.02
2022-11-05T03:55:37.169Z,25.35
2022-11-05T03:58:05.954Z,19.60
2022-11-05T04:00:33.062Z,21.38
2022-11-05T04:02:59.809Z,17.58
2022-11-05T04:05:26.451Z,23.83
2022-11-05T04:08:14.453Z,19.95
2022-11-05T04:10:59.779Z,18.38
2022-11-05T04:13:26.936Z,24.13
2022-11-05T04:16:13.607Z,18.70
2022-11-05T04:18:40.865Z,21.80
2022-11-05T04:21:27.578Z,19.73
2022-11-05T04:24:09.747Z,24.27
2022-11-05T04:26:41.798Z,18.10
2022-11-05T04:29:27.205Z,23.08
2022-11-05T04:31:53.895Z,16.17
2022-11-05T04:34:22.252Z,23.08
2022-11-05T04:36:53.259Z,30.17
2022-11-05T04:39:21.084Z,19.95
2022-11-05T04:41:48.692Z,28.67
2022-11-05T04:44:16.510Z,19.77
2022-11-05T04:46:43.300Z,20.08
2022-11-05T04:49:09.874Z,19.42
2022-11-05T04:51:36.565Z,21.95
2022-11-05T04:54:03.239Z,19.67
2022-11-05T04:56:29.803Z,17.75
2022-11-05T04:58:56.395Z,26.83
2022-11-05T05:01:23.938Z,19.75
2022-11-05T05:03:52.333Z,20.58
2022-11-05T05:06:19.626Z,16.45
2022-11-05T05:08:50.766Z,22.88
2022-11-05T05:11:19.907Z,22.80
2022-11-05T05:13:46.991Z,22.00
2022-11-05T05:16:25.452Z,23.52
2022-11-05T05:18:53.029Z,25.30
2022-11-05T05:21:40.600Z,25.75
2022-11-05T05:24:15.908Z,23.73
2022-11-05T05:26:45.228Z,18.02
2022-11-05T05:29:12.558Z,19.02
2022-11-05T05:31:39.711Z,21.60
2022-11-05T05:34:07.285Z,21.13
2022-11-05T05:36:34.127Z,26.65
2022-11-05T05:39:00.717Z,22.30
2022-11-05T05:41:27.442Z,18.27
2022-11-05T05:43:54.104Z,17.88
2022-11-05T05:46:20.754Z,25.15
2022-11-05T05:48:51.938Z,24.20
2022-11-05T05:51:19.693Z,19.80
2022-11-05T05:53:46.551Z,15.50
2022-11-05T05:56:15.227Z,22.73
2022-11-05T05:58:42.270Z,33.17
2022-11-05T06:01:18.306Z,18.55
2022-11-05T06:03:45.912Z,17.08
2022-11-05T06:06:13.688Z,23.23
2022-11-05T06:08:40.561Z,20.23
2022-11-05T06:11:08.100Z,23.45
2022-11-05T06:13:35.862Z,17.42
2022-11-05T06:16:07.608Z,14.05
2022-11-05T06:18:35.101Z,19.17
2022-11-05T06:21:03.600Z,16.10
2022-11-05T06:23:32.239Z,22.60
2022-11-05T06:26:03.957Z,27.40
2022-11-05T06:28:30.660Z,17.95
2022-11-05T06:30:57.971Z,18.27
2022-11-05T06:33:24.683Z,29.63
2022-11-05T06:35:51.779Z,23.67
2022-11-05T06:38:18.423Z,26.60
2022-11-05T06:40:44.973Z,26.42
2022-11-05T06:43:12.136Z,23.02
2022-11-05T06:45:38.936Z,18.00
2022-11-05T06:48:05.907Z,27.95
2022-11-05T06:50:32.554Z,23.63
2022-11-05T06:53:01.667Z,21.42
2022-11-05T06:55:29.935Z,18.35
2022-11-05T06:57:57.139Z,16.80
2022-11-05T07:00:24.340Z,22.30
2022-11-05T07:02:50.910Z,26.45
2022-11-05T07:05:17.528Z,20.55
2022-11-05T07:07:45.504Z,23.15
2022-11-05T07:10:14.484Z,22.98
2022-11-05T07:12:41.194Z,33.65
2022-11-05T07:15:09.045Z,20.10
2022-11-05T07:17:35.630Z,22.02
2022-11-05T07:20:02.291Z,34.67
2022-11-05T07:22:28.923Z,16.80
2022-11-05T07:24:55.504Z,27.48
2022-11-05T07:27:22.090Z,21.80
2022-11-05T07:29:48.694Z,22.15
2022-11-05T07:32:15.288Z,36.13
2022-11-05T07:34:41.916Z,17.42
2022-11-05T07:37:08.676Z,25.15
2022-11-05T07:39:35.278Z,31.70
2022-11-05T07:42:01.914Z,21.77
2022-11-05T07:44:28.659Z,24.38
2022-11-05T07:46:55.346Z,24.50
2022-11-05T07:49:23.772Z,22.80
2022-11-05T07:51:50.428Z,22.30
2022-11-05T07:54:17.002Z,21.00
2022-11-05T07:56:43.563Z,21.33
2022-11-05T07:59:10.197Z,21.80
2022-11-05T08:01:36.890Z,20.00
2022-11-05T08:04:03.753Z,20.92
2022-11-05T08:06:31.447Z,22.33
2022-11-05T08:08:58.051Z,24.98
2022-11-05T08:11:24.636Z,21.80
2022-11-05T08:13:51.227Z,24.52
2022-11-05T08:16:17.830Z,32.75
2022-11-05T08:18:44.722Z,28.27
2022-11-05T08:21:11.405Z,18.92
2022-11-05T08:23:39.413Z,22.30
2022-11-05T08:26:06.062Z,21.23
2022-11-05T08:28:32.678Z,24.38
2022-11-05T08:30:59.305Z,14.63
2022-11-05T08:33:27.549Z,21.02
2022-11-05T08:35:54.251Z,22.90
2022-11-05T08:38:20.922Z,23.73
2022-11-05T08:40:57.705Z,13.13
2022-11-05T08:43:24.438Z,22.42
2022-11-05T08:45:51.094Z,15.70
2022-11-05T08:48:19.406Z,18.58
2022-11-05T08:50:47.750Z,17.98
2022-11-05T08:53:15.434Z,15.60
2022-11-05T08:55:42.437Z,12.52
2022-11-05T08:58:17.470Z,16.08
2022-11-05T09:00:46.241Z,25.40
2022-11-05T09:03:13.193Z,17.30
2022-11-05T09:05:41.722Z,23.77
2022-11-05T09:08:13.762Z,18.45
2022-11-05T09:10:41.637Z,23.42
2022-11-05T09:13:14.739Z,17.40
2022-11-05T09:15:45.040Z,19.70
2022-11-05T09:18:13.977Z,19.20
2022-11-05T09:20:40.687Z,18.85
2022-11-05T09:23:09.177Z,19.50
2022-11-05T09:25:35.966Z,13.95
2022-11-05T09:28:30.310Z,16.90
2022-11-05T09:30:57.182Z,23.90
2022-11-05T09:33:26.343Z,16.42
2022-11-05T09:35:53.861Z,20.45
2022-11-05T09:38:20.734Z,19.10
2022-11-05T09:40:56.258Z,20.75
2022-11-05T09:43:31.384Z,15.05
2022-11-05T09:46:04.145Z,19.08
2022-11-05T09:48:32.951Z,17.25
2022-11-05T09:50:59.944Z,17.98
2022-11-05T09:53:26.778Z,20.88
2022-11-05T09:55:58.959Z,15.18
2022-11-05T10:01:22.095Z,20.58
2022-11-05T10:03:52.966Z,18.13
2022-11-05T10:06:24.451Z,20.30
2022-11-05T10:09:25.331Z,15.32
2022-11-05T10:11:57.991Z,15.63
2022-11-05T10:14:32.250Z,15.27
2022-11-05T10:17:05.370Z,9.93
2022-11-05T10:19:42.882Z,14.38
2022-11-05T10:22:12.840Z,12.40
2022-11-05T10:24:46.425Z,15.20
2022-11-05T10:27:23.694Z,11.18
2022-11-05T10:29:50.782Z,11.65
2022-11-05T10:32:30.935Z,18.35
2022-11-05T10:35:00.864Z,13.73
2022-11-05T10:37:28.896Z,10.15
2022-11-05T10:39:55.837Z,19.52
2022-11-05T10:42:49.916Z,17.25
2022-11-05T10:45:31.613Z,13.45
2022-11-05T10:48:13.154Z,8.18
2022-11-05T10:50:41.506Z,17.00
2022-11-05T10:53:19.984Z,19.58
2022-11-05T10:55:49.595Z,17.77
2022-11-05T10:58:16.176Z,11.27
2022-11-05T11:01:01.863Z,20.00
2022-11-05T11:03:40.383Z,15.57
2022-11-05T11:06:28.588Z,10.90
2022-11-05T11:09:02.541Z,15.75
2022-11-05T11:11:41.622Z,11.93
2022-11-05T11:14:14.282Z,11.00
2022-11-05T11:16:57.403Z,15.85
2022-11-05T11:19:25.991Z,8.43
2022-11-05T11:22:05.095Z,10.98
2022-11-05T11:24:39.261Z,16.98
2022-11-05T11:27:12.452Z,21.70
2022-11-05T11:29:46.453Z,27.65
2022-11-05T11:32:18.847Z,26.52
2022-11-05T11:34:48.797Z,10.27
2022-11-05T11:37:20.215Z,14.10
2022-11-05T11:39:51.578Z,11.40
2022-11-05T11:42:27.988Z,22.48
2022-11-05T11:44:56.471Z,15.48
2022-11-05T11:47:23.375Z,16.92
2022-11-05T11:49:55.563Z,10.63
2022-11-05T11:55:18.643Z,13.68
2022-11-05T11:57:47.047Z,15.15
2022-11-05T12:00:15.107Z,14.70
2022-11-05T12:03:09.430Z,17.23
2022-11-05T12:05:40.038Z,11.80
2022-11-05T12:08:59.305Z,14.05
2022-11-05T12:11:43.362Z,13.02
2022-11-05T12:14:33.671Z,11.07
2022-11-05T12:17:15.518Z,13.98
2022-11-05T12:20:11.517Z,18.38
2022-11-05T12:22:55.772Z,16.70
2022-11-05T12:25:34.792Z,8.98
2022-11-05T12:28:36.045Z,18.88
2022-11-05T12:31:12.981Z,14.52
2022-11-05T12:33:52.075Z,15.98
2022-11-05T12:36:41.877Z,8.68
2022-11-05T12:39:51.163Z,15.02
2022-11-05T12:42:36.450Z,15.00
2022-11-05T12:45:29.466Z,10.50
2022-11-05T12:48:05.212Z,13.13
2022-11-05T12:50:44.775Z,11.52
2022-11-05T12:53:11.605Z,11.55
2022-11-05T12:55:47.157Z,10.27
2022-11-05T12:58:30.921Z,10.05
2022-11-05T13:01:07.622Z,16.70
2022-11-05T13:03:59.591Z,8.32
2022-11-05T13:06:32.982Z,10.95
2022-11-05T13:09:10.645Z,12.82
2022-11-05T13:12:06.581Z,16.13
2022-11-05T13:14:59.376Z,19.50
2022-11-05T13:17:56.731Z,12.02
2022-11-05T13:20:37.798Z,15.02
2022-11-05T13:23:29.047Z,11.43
2022-11-05T13:26:05.745Z,10.57
2022-11-05T13:28:47.709Z,12.15
2022-11-05T13:31:22.847Z,7.55
2022-11-05T13:33:52.589Z,11.55
2022-11-05T13:36:51.218Z,10.93
2022-11-05T13:39:26.346Z,19.33
2022-11-05T13:42:13.793Z,15.07
2022-11-05T13:44:47.846Z,15.60
2022-11-05T13:47:25.964Z,14.95
2022-11-05T13:49:55.768Z,8.27
2022-11-05T13:52:40.523Z,13.70
2022-11-05T13:55:16.106Z,14.23
2022-11-05T13:58:10.459Z,14.65
2022-11-05T14:00:47.210Z,12.25
2022-11-05T14:03:23.019Z,8.05
2022-11-05T14:06:02.351Z,12.05
2022-11-05T14:08:42.680Z,9.65
2022-11-05T14:11:33.122Z,12.38
2022-11-05T14:14:09.658Z,11.52
2022-11-05T14:16:56.488Z,14.88
2022-11-05T14:19:32.530Z,13.35
2022-11-05T14:21:59.263Z,11.50
2022-11-05T14:24:38.584Z,13.65
2022-11-05T14:27:05.745Z,11.35
2022-11-05T14:29:45.408Z,14.88
2022-11-05T14:32:21.105Z,12.80
2022-11-05T14:34:50.766Z,11.02
2022-11-05T14:37:27.111Z,14.27
2022-11-05T14:39:57.925Z,6.65
2022-11-05T14:42:31.390Z,14.82
2022-11-05T14:45:13.443Z,9.95
2022-11-05T14:47:50.951Z,10.20
2022-11-05T14:50:35.198Z,15.98
2022-11-05T14:53:17.168Z,10.82
2022-11-05T14:55:46.705Z,14.68
2022-11-05T14:58:19.406Z,6.68
2022-11-05T15:00:49.280Z,16.17
2022-11-05T15:03:33.714Z,8.38
2022-11-05T15:06:17.659Z,9.05
2022-11-05T15:08:52.699Z,11.18
2022-11-05T15:11:46.504Z,14.68
2022-11-05T15:14:54.985Z,9.20
2022-11-05T15:17:33.775Z,9.35
2022-11-05T15:20:42.615Z,15.85
2022-11-05T15:23:13.666Z,12.00
2022-11-05T15:26:02.700Z,10.17
2022-11-05T15:28:37.269Z,11.30
2022-11-05T15:31:33.557Z,13.77
2022-11-05T15:34:21.764Z,12.07
2022-11-05T15:37:14.780Z,9.32
2022-11-05T15:39:44.074Z,10.50
2022-11-05T15:42:22.990Z,7.85
2022-11-05T15:44:50.682Z,14.15
2022-11-05T15:47:22.372Z,16.58
2022-11-05T15:49:53.824Z,16.25
2022-11-05T15:52:23.184Z,16.75
2022-11-05T15:55:24.495Z,17.02
2022-11-05T15:58:17.223Z,11.05
2022-11-05T16:03:25.692Z,12.27
2022-11-05T16:05:53.846Z,10.27
2022-11-05T16:08:23.753Z,17.73
2022-11-05T16:11:00.857Z,18.27
2022-11-05T16:13:39.362Z,11.38
2022-11-05T16:16:15.272Z,13.65
2022-11-05T16:18:43.605Z,14.20
2022-11-05T16:21:18.947Z,13.98
2022-11-05T16:23:54.219Z,16.70
2022-11-05T16:29:29.432Z,9.32
2022-11-05T16:31:57.846Z,12.45
2022-11-05T16:34:37.498Z,13.80
2022-11-05T16:37:06.156Z,15.57
2022-11-05T16:39:33.081Z,12.05
2022-11-05T16:41:59.934Z,15.65
2022-11-05T16:44:26.550Z,16.50
2022-11-05T16:46:53.401Z,12.75
2022-11-05T16:49:20.997Z,14.18
2022-11-05T16:51:47.596Z,14.70
2022-11-05T16:54:14.492Z,15.45
2022-11-05T16:56:42.859Z,23.42
2022-11-05T16:59:12.991Z,15.15
2022-11-05T17:01:42.395Z,18.88
2022-11-05T17:04:13.115Z,14.85
2022-11-05T17:06:39.970Z,13.45
2022-11-05T17:09:06.621Z,18.95
2022-11-05T17:11:33.194Z,22.00
2022-11-05T17:13:59.814Z,13.48
2022-11-05T17:16:26.822Z,14.13
2022-11-05T17:18:53.619Z,22.05
2022-11-05T17:21:20.292Z,16.77
2022-11-05T17:23:46.939Z,19.00
2022-11-05T17:26:14.147Z,21.10
2022-11-05T17:28:41.066Z,16.05
2022-11-05T17:31:11.549Z,15.07
2022-11-05T17:33:38.236Z,16.05
2022-11-05T17:36:09.572Z,12.88
2022-11-05T17:38:36.867Z,21.95
2022-11-05T17:41:13.586Z,14.07
2022-11-05T17:43:40.382Z,16.42
2022-11-05T17:46:12.090Z,18.95
2022-11-05T17:48:39.428Z,16.23
2022-11-05T17:51:10.344Z,28.55
2022-11-05T17:53:37.501Z,24.95
2022-11-05T17:56:09.568Z,16.88
2022-11-05T17:58:38.463Z,17.77
2022-11-05T18:01:06.634Z,20.80
2022-11-05T18:03:33.827Z,15.40
2022-11-05T18:06:03.688Z,20.10
2022-11-05T18:08:30.775Z,18.83
2022-11-05T18:10:57.679Z,18.30
2022-11-05T18:13:24.353Z,19.20
2022-11-05T18:15:54.248Z,23.98
2022-11-05T18:18:21.549Z,17.50
2022-11-05T18:20:48.236Z,19.10
2022-11-05T18:23:15.126Z,18.23
2022-11-05T18:25:42.915Z,22.25
2022-11-05T18:28:10.134Z,19.27
2022-11-05T18:30:38.571Z,18.38
2022-11-05T18:33:05.447Z,24.27
2022-11-05T18:35:32.051Z,26.85
2022-11-05T18:37:58.698Z,30.33
2022-11-05T18:40:25.309Z,23.38
2022-11-05T18:42:51.886Z,26.38
2022-11-05T18:45:18.545Z,19.90
2022-11-05T18:47:45.283Z,29.42
2022-11-05T18:50:12.057Z,22.98
2022-11-05T18:52:38.744Z,28.17
2022-11-05T18:55:05.986Z,26.85
2022-11-05T18:57:33.998Z,23.48
2022-11-05T19:00:00.943Z,23.45
2022-11-05T19:02:27.993Z,29.20
2022-11-05T19:05:26.859Z,29.10
2022-11-05T19:07:41.399Z,29.00
2022-11-05T19:10:08.838Z,33.47
2022-11-05T19:12:35.422Z,32.75
2022-11-05T19:15:02.962Z,34.88
2022-11-05T19:17:31.628Z,25.02
2022-11-05T19:19:58.454Z,26.17
2022-11-05T19:22:26.047Z,31.90
2022-11-05T19:24:52.846Z,28.30
2022-11-05T19:27:19.892Z,37.47
2022-11-05T19:29:47.183Z,27.98
2022-11-05T19:32:13.809Z,25.60
2022-11-05T19:34:40.425Z,36.55
2022-11-05T19:37:08.251Z,27.10
2022-11-05T19:39:35.725Z,32.03
2022-11-05T19:42:04.074Z,31.70
2022-11-05T19:44:31.740Z,27.52
2022-11-05T19:46:58.638Z,28.10
2022-11-05T19:49:25.278Z,26.85
2022-11-05T19:51:51.994Z,35.10
2022-11-05T19:54:18.760Z,37.25
2022-11-05T19:56:45.793Z,30.58
2022-11-05T19:59:13.088Z,23.55
2022-11-05T20:01:39.901Z,32.63
2022-11-05T20:04:06.743Z,22.90
2022-11-05T20:06:38.830Z,27.30
2022-11-05T20:09:25.798Z,19.88
2022-11-05T20:11:54.633Z,31.13
2022-11-05T20:14:22.710Z,24.92
2022-11-05T20:16:50.360Z,24.45
2022-11-05T20:19:19.336Z,24.38
2022-11-05T20:21:46.022Z,23.55
2022-11-05T20:24:18.859Z,28.13
2022-11-05T20:26:50.277Z,35.42
2022-11-05T20:29:16.926Z,30.08
2022-11-05T20:31:43.541Z,30.48
2022-11-05T20:34:10.616Z,25.30
2022-11-05T20:36:37.196Z,25.02
2022-11-05T20:39:03.954Z,25.75
2022-11-05T20:41:31.589Z,28.58
2022-11-05T20:43:58.244Z,33.38
2022-11-05T20:46:25.252Z,31.77
2022-11-05T20:48:52.113Z,24.75
2022-11-05T20:51:22.435Z,26.70
2022-11-05T20:53:49.137Z,33.85
2022-11-05T20:56:18.030Z,36.70
2022-11-05T20:58:45.023Z,28.55
2022-11-05T21:01:13.052Z,27.17
2022-11-05T21:03:39.807Z,34.03
2022-11-05T21:06:06.527Z,23.50
2022-11-05T21:08:33.950Z,30.13
2022-11-05T21:11:00.969Z,24.10
2022-11-05T21:13:28.066Z,22.52
2022-11-05T21:15:57.149Z,30.08
2022-11-05T21:18:26.729Z,28.55
2022-11-05T21:20:53.794Z,26.58
2022-11-05T21:23:20.467Z,24.35
2022-11-05T21:25:47.362Z,22.88
2022-11-05T21:28:15.752Z,23.25
2022-11-05T21:30:47.556Z,19.55
2022-11-05T21:33:15.710Z,28.20
2022-11-05T21:35:44.978Z,32.20
2022-11-05T21:38:13.946Z,32.55
2022-11-05T21:40:40.844Z,37.63
2022-11-05T21:43:08.030Z,37.90
2022-11-05T21:45:37.632Z,46.40
2022-11-05T21:48:04.627Z,46.55
2022-11-05T21:50:49.848Z,56.03
2022-11-05T21:53:36.063Z,56.70
2022-11-05T21:56:36.970Z,63.75
2022-11-05T21:59:22.946Z,55.83
2022-11-05T22:01:50.110Z,53.05
2022-11-05T22:04:16.906Z,50.90
2022-11-05T22:06:43.562Z,45.20
2022-11-05T22:09:10.363Z,53.47
2022-11-05T22:11:37.799Z,45.22
2022-11-05T22:14:04.593Z,50.75
2022-11-05T22:16:31.233Z,45.53
2022-11-05T22:18:58.663Z,49.83
2022-11-05T22:21:25.436Z,43.13
2022-11-05T22:23:53.148Z,38.88
2022-11-05T22:26:20.375Z,41.67
2022-11-05T22:28:47.186Z,45.63
2022-11-05T22:31:15.148Z,45.95
2022-11-05T22:33:42.964Z,34.08
2022-11-05T22:36:10.403Z,30.77
2022-11-05T22:38:37.279Z,33.92
2022-11-05T22:41:12.254Z,38.97
2022-11-05T22:43:39.448Z,37.45
2022-11-05T22:46:08.647Z,31.92
2022-11-05T22:48:38.124Z,31.67
2022-11-05T22:51:26.780Z,30.25
2022-11-05T22:53:54.883Z,31.52
2022-11-05T22:56:23.891Z,32.00
2022-11-05T22:58:50.757Z,25.67
2022-11-05T23:01:18.780Z,29.17
2022-11-05T23:03:47.271Z,25.25
2022-11-05T23:06:36.578Z,37.38
2022-11-05T23:09:25.724Z,30.40
2022-11-05T23:11:54.055Z,27.88
2022-11-05T23:14:20.875Z,29.08
2022-11-05T23:17:06.082Z,33.38
2022-11-05T23:19:51.328Z,24.33
2022-11-05T23:22:41.643Z,25.65
2022-11-05T23:25:11.369Z,20.88
2022-11-05T23:27:39.903Z,28.95
2022-11-05T23:30:13.520Z,22.23
2022-11-05T23:32:40.466Z,23.35
2022-11-05T23:35:08.052Z,18.05
2022-11-05T23:37:53.819Z,22.08
2022-11-05T23:40:26.662Z,22.17
2022-11-05T23:43:12.170Z,26.10
2022-11-05T23:45:49.679Z,22.75
2022-11-05T23:48:33.095Z,21.67
2022-11-05T23:51:07.937Z,16.05
2022-11-05T23:53:37.343Z,23.23
2022-11-05T23:56:15.339Z,35.47
2022-11-05T23:58:42.859Z,23.75
